sensor_id;sensor_type;location;lat;lon;timestamp;pressure;altitude;pressure_sealevel;temperature;humidity
83185;BME280;73080;48.768;11.528;2024-01-07T00:00:46;96271.44;;;3.97;83.37
83185;BME280;73080;48.768;11.528;2024-01-07T00:03:12;96278.69;;;3.95;83.53
83185;BME280;73080;48.768;11.528;2024-01-07T00:05:37;96285.22;;;3.79;83.84
83185;BME280;73080;48.768;11.528;2024-01-07T00:08:02;96278.44;;;3.78;83.42
83185;BME280;73080;48.768;11.528;2024-01-07T00:10:28;96275.56;;;3.86;83.11
83185;BME280;73080;48.768;11.528;2024-01-07T00:12:53;96272.97;;;3.86;83.84
83185;BME280;73080;48.768;11.528;2024-01-07T00:15:18;96279.16;;;3.85;83.94
83185;BME280;73080;48.768;11.528;2024-01-07T00:17:43;96281.25;;;3.76;83.61
83185;BME280;73080;48.768;11.528;2024-01-07T00:20:09;96278.44;;;3.78;83.50
83185;BME280;73080;48.768;11.528;2024-01-07T00:22:34;96275.84;;;3.78;83.81
83185;BME280;73080;48.768;11.528;2024-01-07T00:25:00;96272.84;;;3.81;84.39
83185;BME280;73080;48.768;11.528;2024-01-07T00:27:25;96279.38;;;3.83;83.55
83185;BME280;73080;48.768;11.528;2024-01-07T00:29:50;96282.91;;;3.71;83.78
83185;BME280;73080;48.768;11.528;2024-01-07T00:32:15;96276.28;;;3.75;83.51
83185;BME280;73080;48.768;11.528;2024-01-07T00:34:44;96290.00;;;3.82;83.87
83185;BME280;73080;48.768;11.528;2024-01-07T00:37:09;96283.94;;;3.70;84.10
83185;BME280;73080;48.768;11.528;2024-01-07T00:39:34;96272.16;;;3.85;83.81
83185;BME280;73080;48.768;11.528;2024-01-07T00:41:59;96280.03;;;3.79;83.84
83185;BME280;73080;48.768;11.528;2024-01-07T00:44:25;96280.41;;;3.82;83.49
83185;BME280;73080;48.768;11.528;2024-01-07T00:46:50;96273.81;;;3.80;83.74
83185;BME280;73080;48.768;11.528;2024-01-07T00:49:15;96283.28;;;3.74;83.51
83185;BME280;73080;48.768;11.528;2024-01-07T00:51:43;96282.78;;;3.84;83.68
83185;BME280;73080;48.768;11.528;2024-01-07T00:54:09;96289.63;;;3.78;84.07
83185;BME280;73080;48.768;11.528;2024-01-07T00:56:34;96284.13;;;3.86;83.29
83185;BME280;73080;48.768;11.528;2024-01-07T00:58:59;96297.91;;;3.87;84.14
83185;BME280;73080;48.768;11.528;2024-01-07T01:01:25;96294.66;;;3.73;84.11
83185;BME280;73080;48.768;11.528;2024-01-07T01:03:50;96290.34;;;3.85;83.56
83185;BME280;73080;48.768;11.528;2024-01-07T01:06:15;96295.13;;;3.89;83.38
83185;BME280;73080;48.768;11.528;2024-01-07T01:08:40;96291.06;;;3.74;84.17
83185;BME280;73080;48.768;11.528;2024-01-07T01:11:09;96298.19;;;3.79;83.59
83185;BME280;73080;48.768;11.528;2024-01-07T01:13:34;96299.38;;;3.83;84.05
83185;BME280;73080;48.768;11.528;2024-01-07T01:15:59;96299.38;;;3.83;84.10
83185;BME280;73080;48.768;11.528;2024-01-07T01:18:25;96298.25;;;3.72;84.23
83185;BME280;73080;48.768;11.528;2024-01-07T01:20:50;96296.28;;;3.74;83.90
83185;BME280;73080;48.768;11.528;2024-01-07T01:23:15;96297.06;;;3.75;84.25
83185;BME280;73080;48.768;11.528;2024-01-07T01:25:41;96302.03;;;3.76;83.96
83185;BME280;73080;48.768;11.528;2024-01-07T01:28:06;96305.75;;;3.80;83.51
83185;BME280;73080;48.768;11.528;2024-01-07T01:30:31;96302.81;;;3.77;83.71
83185;BME280;73080;48.768;11.528;2024-01-07T01:32:56;96303.75;;;3.64;83.59
83185;BME280;73080;48.768;11.528;2024-01-07T01:35:22;96298.25;;;3.72;83.91
83185;BME280;73080;48.768;11.528;2024-01-07T01:37:53;96295.97;;;3.64;84.05
83185;BME280;73080;48.768;11.528;2024-01-07T01:40:18;96304.69;;;3.70;83.69
83185;BME280;73080;48.768;11.528;2024-01-07T01:42:44;96303.47;;;3.72;83.48
83185;BME280;73080;48.768;11.528;2024-01-07T01:45:09;96300.06;;;3.72;83.93
83185;BME280;73080;48.768;11.528;2024-01-07T01:47:34;96302.88;;;3.70;83.65
83185;BME280;73080;48.768;11.528;2024-01-07T01:50:00;96303.53;;;3.66;83.61
83185;BME280;73080;48.768;11.528;2024-01-07T01:52:26;96293.06;;;3.54;84.21
83185;BME280;73080;48.768;11.528;2024-01-07T01:54:52;96307.41;;;3.56;84.08
83185;BME280;73080;48.768;11.528;2024-01-07T01:57:20;96294.38;;;3.63;84.24
83185;BME280;73080;48.768;11.528;2024-01-07T01:59:47;96299.84;;;3.55;83.69
83185;BME280;73080;48.768;11.528;2024-01-07T02:02:13;96293.47;;;3.51;83.99
83185;BME280;73080;48.768;11.528;2024-01-07T02:04:39;96295.66;;;3.54;84.14
83185;BME280;73080;48.768;11.528;2024-01-07T02:07:04;96297.41;;;3.60;84.06
83185;BME280;73080;48.768;11.528;2024-01-07T02:09:30;96297.53;;;3.65;83.68
83185;BME280;73080;48.768;11.528;2024-01-07T02:12:05;96292.84;;;3.55;83.88
83185;BME280;73080;48.768;11.528;2024-01-07T02:14:30;96301.22;;;3.57;83.82
83185;BME280;73080;48.768;11.528;2024-01-07T02:16:56;96290.59;;;3.59;83.23
83185;BME280;73080;48.768;11.528;2024-01-07T02:19:22;96296.13;;;3.44;84.47
83185;BME280;73080;48.768;11.528;2024-01-07T02:21:51;96303.66;;;3.52;83.94
83185;BME280;73080;48.768;11.528;2024-01-07T02:24:17;96304.19;;;3.61;83.68
83185;BME280;73080;48.768;11.528;2024-01-07T02:26:42;96297.88;;;3.50;83.55
83185;BME280;73080;48.768;11.528;2024-01-07T02:29:08;96302.22;;;3.56;83.71
83185;BME280;73080;48.768;11.528;2024-01-07T02:31:33;96306.00;;;3.61;83.01
83185;BME280;73080;48.768;11.528;2024-01-07T02:33:58;96299.94;;;3.67;83.59
83185;BME280;73080;48.768;11.528;2024-01-07T02:36:24;96301.66;;;3.73;83.48
83185;BME280;73080;48.768;11.528;2024-01-07T02:38:49;96301.59;;;3.61;83.68
83185;BME280;73080;48.768;11.528;2024-01-07T02:41:15;96303.81;;;3.57;83.83
83185;BME280;73080;48.768;11.528;2024-01-07T02:43:40;96302.06;;;3.51;83.94
83185;BME280;73080;48.768;11.528;2024-01-07T02:46:06;96305.88;;;3.49;83.37
83185;BME280;73080;48.768;11.528;2024-01-07T02:48:32;96303.81;;;3.57;82.92
83185;BME280;73080;48.768;11.528;2024-01-07T02:51:00;96293.75;;;3.43;83.17
83185;BME280;73080;48.768;11.528;2024-01-07T02:53:26;96292.53;;;3.45;83.12
83185;BME280;73080;48.768;11.528;2024-01-07T02:55:51;96290.75;;;3.46;83.34
83185;BME280;73080;48.768;11.528;2024-01-07T02:58:16;96292.63;;;3.39;84.02
83185;BME280;73080;48.768;11.528;2024-01-07T03:00:42;96292.97;;;3.42;83.45
83185;BME280;73080;48.768;11.528;2024-01-07T03:03:07;96295.47;;;3.30;84.22
83185;BME280;73080;48.768;11.528;2024-01-07T03:05:33;96293.19;;;3.41;83.28
83185;BME280;73080;48.768;11.528;2024-01-07T03:07:58;96286.41;;;3.40;83.81
83185;BME280;73080;48.768;11.528;2024-01-07T03:10:24;96288.22;;;3.39;83.41
83185;BME280;73080;48.768;11.528;2024-01-07T03:12:49;96289.84;;;3.34;84.26
83185;BME280;73080;48.768;11.528;2024-01-07T03:15:14;96294.38;;;3.38;83.81
83185;BME280;73080;48.768;11.528;2024-01-07T03:17:40;96294.66;;;3.30;84.53
83185;BME280;73080;48.768;11.528;2024-01-07T03:20:06;96298.53;;;3.46;83.37
83185;BME280;73080;48.768;11.528;2024-01-07T03:22:31;96295.78;;;3.41;83.86
83185;BME280;73080;48.768;11.528;2024-01-07T03:24:57;96303.88;;;3.51;84.04
83185;BME280;73080;48.768;11.528;2024-01-07T03:27:22;96303.97;;;3.38;83.45
83185;BME280;73080;48.768;11.528;2024-01-07T03:29:48;96300.41;;;3.39;83.69
83185;BME280;73080;48.768;11.528;2024-01-07T03:32:13;96301.50;;;3.49;83.71
83185;BME280;73080;48.768;11.528;2024-01-07T03:34:45;96300.66;;;3.30;84.13
83185;BME280;73080;48.768;11.528;2024-01-07T03:37:10;96299.50;;;3.26;83.68
83185;BME280;73080;48.768;11.528;2024-01-07T03:39:35;96307.69;;;3.23;83.73
83185;BME280;73080;48.768;11.528;2024-01-07T03:42:01;96305.25;;;3.28;84.16
83185;BME280;73080;48.768;11.528;2024-01-07T03:44:26;96308.38;;;3.37;83.83
83185;BME280;73080;48.768;11.528;2024-01-07T03:46:51;96305.31;;;3.22;84.42
83185;BME280;73080;48.768;11.528;2024-01-07T03:49:17;96312.13;;;3.16;84.36
83185;BME280;73080;48.768;11.528;2024-01-07T03:51:43;96316.66;;;3.27;84.15
83185;BME280;73080;48.768;11.528;2024-01-07T03:54:08;96316.47;;;3.22;84.55
83185;BME280;73080;48.768;11.528;2024-01-07T03:56:36;96311.88;;;2.99;85.21
83185;BME280;73080;48.768;11.528;2024-01-07T03:59:02;96323.31;;;3.17;84.64
83185;BME280;73080;48.768;11.528;2024-01-07T04:01:27;96315.75;;;3.15;84.08
83185;BME280;73080;48.768;11.528;2024-01-07T04:03:53;96328.13;;;3.13;84.17
83185;BME280;73080;48.768;11.528;2024-01-07T04:06:18;96333.59;;;3.05;84.50
83185;BME280;73080;48.768;11.528;2024-01-07T04:08:43;96333.06;;;2.96;85.25
83185;BME280;73080;48.768;11.528;2024-01-07T04:11:09;96329.81;;;3.01;84.91
83185;BME280;73080;48.768;11.528;2024-01-07T04:13:34;96333.66;;;2.92;84.48
83185;BME280;73080;48.768;11.528;2024-01-07T04:15:59;96332.19;;;3.02;84.14
83185;BME280;73080;48.768;11.528;2024-01-07T04:18:25;96346.81;;;2.97;84.83
83185;BME280;73080;48.768;11.528;2024-01-07T04:20:50;96346.47;;;2.87;84.91
83185;BME280;73080;48.768;11.528;2024-01-07T04:23:16;96346.59;;;2.98;85.05
83185;BME280;73080;48.768;11.528;2024-01-07T04:25:41;96346.19;;;2.95;84.71
83185;BME280;73080;48.768;11.528;2024-01-07T04:28:06;96347.00;;;2.95;84.43
83185;BME280;73080;48.768;11.528;2024-01-07T04:30:32;96344.75;;;3.06;84.60
83185;BME280;73080;48.768;11.528;2024-01-07T04:32:57;96351.84;;;2.85;84.83
83185;BME280;73080;48.768;11.528;2024-01-07T04:35:22;96352.44;;;2.87;85.31
83185;BME280;73080;48.768;11.528;2024-01-07T04:37:51;96355.25;;;2.86;84.75
83185;BME280;73080;48.768;11.528;2024-01-07T04:40:16;96355.66;;;2.83;84.91
83185;BME280;73080;48.768;11.528;2024-01-07T04:42:41;96355.66;;;2.83;85.52
83185;BME280;73080;48.768;11.528;2024-01-07T04:45:07;96368.16;;;2.92;85.04
83185;BME280;73080;48.768;11.528;2024-01-07T04:47:33;96363.78;;;2.93;85.48
83185;BME280;73080;48.768;11.528;2024-01-07T04:49:58;96364.34;;;2.95;84.84
83185;BME280;73080;48.768;11.528;2024-01-07T04:52:24;96367.56;;;2.97;84.36
83185;BME280;73080;48.768;11.528;2024-01-07T04:54:54;96370.53;;;2.94;85.00
83185;BME280;73080;48.768;11.528;2024-01-07T04:57:20;96375.63;;;2.82;85.17
83185;BME280;73080;48.768;11.528;2024-01-07T04:59:47;96373.63;;;2.78;84.97
83185;BME280;73080;48.768;11.528;2024-01-07T05:02:12;96379.81;;;2.77;85.10
83185;BME280;73080;48.768;11.528;2024-01-07T05:04:37;96386.09;;;2.94;84.74
83185;BME280;73080;48.768;11.528;2024-01-07T05:07:03;96386.13;;;2.87;84.60
83185;BME280;73080;48.768;11.528;2024-01-07T05:09:35;96383.50;;;2.62;84.96
83185;BME280;73080;48.768;11.528;2024-01-07T05:12:00;96387.22;;;2.73;85.78
83185;BME280;73080;48.768;11.528;2024-01-07T05:14:26;96384.81;;;2.71;85.34
83185;BME280;73080;48.768;11.528;2024-01-07T05:16:53;96392.25;;;2.68;85.45
83185;BME280;73080;48.768;11.528;2024-01-07T05:19:18;96392.88;;;2.57;85.14
83185;BME280;73080;48.768;11.528;2024-01-07T05:21:44;96397.88;;;2.52;86.16
83185;BME280;73080;48.768;11.528;2024-01-07T05:24:09;96400.09;;;2.41;85.83
83185;BME280;73080;48.768;11.528;2024-01-07T05:26:38;96398.72;;;2.39;85.70
83185;BME280;73080;48.768;11.528;2024-01-07T05:29:04;96399.72;;;2.31;85.24
83185;BME280;73080;48.768;11.528;2024-01-07T05:31:29;96400.69;;;2.43;85.58
83185;BME280;73080;48.768;11.528;2024-01-07T05:33:55;96406.28;;;2.47;85.54
83185;BME280;73080;48.768;11.528;2024-01-07T05:36:20;96411.84;;;2.44;85.83
83185;BME280;73080;48.768;11.528;2024-01-07T05:38:45;96413.38;;;2.58;85.05
83185;BME280;73080;48.768;11.528;2024-01-07T05:41:11;96410.59;;;2.60;85.67
83185;BME280;73080;48.768;11.528;2024-01-07T05:43:36;96412.97;;;2.68;84.64
83185;BME280;73080;48.768;11.528;2024-01-07T05:46:04;96403.41;;;2.68;84.87
83185;BME280;73080;48.768;11.528;2024-01-07T05:48:41;96415.16;;;2.64;84.96
83185;BME280;73080;48.768;11.528;2024-01-07T05:51:06;96410.53;;;2.73;85.01
83185;BME280;73080;48.768;11.528;2024-01-07T05:53:32;96412.31;;;2.79;84.91
83185;BME280;73080;48.768;11.528;2024-01-07T05:55:57;96421.88;;;2.79;84.81
83185;BME280;73080;48.768;11.528;2024-01-07T05:58:24;96421.66;;;2.80;85.33
83185;BME280;73080;48.768;11.528;2024-01-07T06:00:50;96423.25;;;2.81;84.68
83185;BME280;73080;48.768;11.528;2024-01-07T06:03:18;96424.19;;;2.93;84.94
83185;BME280;73080;48.768;11.528;2024-01-07T06:05:44;96426.44;;;2.90;84.29
83185;BME280;73080;48.768;11.528;2024-01-07T06:08:12;96426.50;;;3.08;84.22
83185;BME280;73080;48.768;11.528;2024-01-07T06:10:38;96433.13;;;3.04;83.85
83185;BME280;73080;48.768;11.528;2024-01-07T06:13:04;96436.72;;;3.03;84.00
83185;BME280;73080;48.768;11.528;2024-01-07T06:15:29;96430.72;;;3.02;84.24
83185;BME280;73080;48.768;11.528;2024-01-07T06:17:55;96430.97;;;2.94;84.10
83185;BME280;73080;48.768;11.528;2024-01-07T06:20:20;96431.72;;;3.01;83.88
83185;BME280;73080;48.768;11.528;2024-01-07T06:22:46;96438.13;;;2.99;83.68
83185;BME280;73080;48.768;11.528;2024-01-07T06:25:11;96442.38;;;2.87;84.43
83185;BME280;73080;48.768;11.528;2024-01-07T06:27:38;96436.97;;;2.88;84.69
83185;BME280;73080;48.768;11.528;2024-01-07T06:30:04;96444.50;;;3.03;83.37
83185;BME280;73080;48.768;11.528;2024-01-07T06:32:30;96444.72;;;2.95;84.77
83185;BME280;73080;48.768;11.528;2024-01-07T06:34:55;96449.56;;;2.91;83.68
83185;BME280;73080;48.768;11.528;2024-01-07T06:37:23;96442.59;;;2.85;84.58
83185;BME280;73080;48.768;11.528;2024-01-07T06:39:55;96444.00;;;2.81;84.45
83185;BME280;73080;48.768;11.528;2024-01-07T06:42:20;96447.84;;;2.65;84.79
83185;BME280;73080;48.768;11.528;2024-01-07T06:44:45;96451.78;;;2.81;84.53
83185;BME280;73080;48.768;11.528;2024-01-07T06:47:11;96446.22;;;2.78;84.17
83185;BME280;73080;48.768;11.528;2024-01-07T06:49:40;96452.41;;;2.77;84.04
83185;BME280;73080;48.768;11.528;2024-01-07T06:52:05;96455.22;;;2.68;84.40
83185;BME280;73080;48.768;11.528;2024-01-07T06:54:31;96451.66;;;2.63;84.00
83185;BME280;73080;48.768;11.528;2024-01-07T06:56:56;96467.22;;;2.63;84.53
83185;BME280;73080;48.768;11.528;2024-01-07T06:59:21;96467.53;;;2.80;84.03
83185;BME280;73080;48.768;11.528;2024-01-07T07:01:47;96461.56;;;2.79;83.92
83185;BME280;73080;48.768;11.528;2024-01-07T07:04:12;96470.16;;;2.73;84.26
83185;BME280;73080;48.768;11.528;2024-01-07T07:06:37;96468.16;;;2.75;84.07
83185;BME280;73080;48.768;11.528;2024-01-07T07:09:03;96473.72;;;2.79;83.69
83185;BME280;73080;48.768;11.528;2024-01-07T07:11:28;96472.72;;;2.80;83.70
83185;BME280;73080;48.768;11.528;2024-01-07T07:13:54;96473.91;;;2.84;83.55
83185;BME280;73080;48.768;11.528;2024-01-07T07:16:19;96477.69;;;2.81;83.56
83185;BME280;73080;48.768;11.528;2024-01-07T07:18:44;96475.53;;;2.71;83.91
83185;BME280;73080;48.768;11.528;2024-01-07T07:21:10;96463.81;;;2.62;83.56
83185;BME280;73080;48.768;11.528;2024-01-07T07:23:35;96476.91;;;2.74;82.95
83185;BME280;73080;48.768;11.528;2024-01-07T07:26:06;96483.09;;;2.80;83.27
83185;BME280;73080;48.768;11.528;2024-01-07T07:28:32;96485.91;;;2.78;83.68
83185;BME280;73080;48.768;11.528;2024-01-07T07:30:57;96484.34;;;2.64;83.49
83185;BME280;73080;48.768;11.528;2024-01-07T07:33:22;96492.34;;;2.56;83.45
83185;BME280;73080;48.768;11.528;2024-01-07T07:35:48;96494.72;;;2.64;83.51
83185;BME280;73080;48.768;11.528;2024-01-07T07:38:13;96497.09;;;2.59;83.69
83185;BME280;73080;48.768;11.528;2024-01-07T07:40:38;96499.66;;;2.72;83.50
83185;BME280;73080;48.768;11.528;2024-01-07T07:43:04;96502.03;;;2.80;83.15
83185;BME280;73080;48.768;11.528;2024-01-07T07:45:35;96498.06;;;2.78;82.74
83185;BME280;73080;48.768;11.528;2024-01-07T07:48:01;96506.47;;;2.66;83.41
83185;BME280;73080;48.768;11.528;2024-01-07T07:50:26;96510.63;;;2.74;83.41
83185;BME280;73080;48.768;11.528;2024-01-07T07:52:52;96506.09;;;2.63;83.62
83185;BME280;73080;48.768;11.528;2024-01-07T07:58:42;96514.09;;;2.55;83.33
83185;BME280;73080;48.768;11.528;2024-01-07T08:01:07;96526.63;;;2.44;83.30
83185;BME280;73080;48.768;11.528;2024-01-07T08:03:33;96522.66;;;2.55;82.94
83185;BME280;73080;48.768;11.528;2024-01-07T08:05:58;96527.84;;;2.35;83.09
83185;BME280;73080;48.768;11.528;2024-01-07T08:08:23;96533.00;;;2.62;82.17
83185;BME280;73080;48.768;11.528;2024-01-07T08:10:48;96534.00;;;2.61;82.68
83185;BME280;73080;48.768;11.528;2024-01-07T08:13:14;96538.56;;;2.59;82.49
83185;BME280;73080;48.768;11.528;2024-01-07T08:15:39;96538.78;;;2.51;82.20
83185;BME280;73080;48.768;11.528;2024-01-07T08:18:05;96549.34;;;2.56;82.93
83185;BME280;73080;48.768;11.528;2024-01-07T08:20:30;96547.31;;;2.71;82.29
83185;BME280;73080;48.768;11.528;2024-01-07T08:22:55;96557.13;;;2.62;81.96
83185;BME280;73080;48.768;11.528;2024-01-07T08:25:21;96559.72;;;2.56;81.65
83185;BME280;73080;48.768;11.528;2024-01-07T08:27:46;96559.94;;;2.54;82.40
83185;BME280;73080;48.768;11.528;2024-01-07T08:30:11;96562.31;;;2.62;82.26
83185;BME280;73080;48.768;11.528;2024-01-07T08:32:36;96560.13;;;2.39;82.39
83185;BME280;73080;48.768;11.528;2024-01-07T08:35:02;96564.50;;;2.45;82.36
83185;BME280;73080;48.768;11.528;2024-01-07T08:37:27;96559.72;;;2.36;82.57
83185;BME280;73080;48.768;11.528;2024-01-07T08:39:52;96564.50;;;2.39;82.71
83185;BME280;73080;48.768;11.528;2024-01-07T08:42:17;96572.47;;;2.44;82.02
83185;BME280;73080;48.768;11.528;2024-01-07T08:44:43;96569.69;;;2.52;82.25
83185;BME280;73080;48.768;11.528;2024-01-07T08:47:08;96566.50;;;2.37;82.43
83185;BME280;73080;48.768;11.528;2024-01-07T08:49:33;96577.88;;;2.42;82.28
83185;BME280;73080;48.768;11.528;2024-01-07T08:51:59;96569.50;;;2.27;82.60
83185;BME280;73080;48.768;11.528;2024-01-07T08:54:24;96573.28;;;2.18;83.16
83185;BME280;73080;48.768;11.528;2024-01-07T08:56:49;96573.09;;;2.06;82.59
83185;BME280;73080;48.768;11.528;2024-01-07T08:59:14;96578.28;;;2.13;81.95
83185;BME280;73080;48.768;11.528;2024-01-07T09:01:40;96592.81;;;2.20;82.28
83185;BME280;73080;48.768;11.528;2024-01-07T09:04:05;96579.88;;;2.20;82.76
83185;BME280;73080;48.768;11.528;2024-01-07T09:06:31;96586.41;;;2.10;81.78
83185;BME280;73080;48.768;11.528;2024-01-07T09:08:56;96586.22;;;2.11;82.79
83185;BME280;73080;48.768;11.528;2024-01-07T09:11:22;96586.22;;;1.98;81.74
83185;BME280;73080;48.768;11.528;2024-01-07T09:13:47;96584.59;;;1.97;82.44
83185;BME280;73080;48.768;11.528;2024-01-07T09:16:12;96595.59;;;2.06;82.52
83185;BME280;73080;48.768;11.528;2024-01-07T09:18:37;96588.63;;;2.00;82.40
83185;BME280;73080;48.768;11.528;2024-01-07T09:21:03;96599.94;;;1.85;82.13
83185;BME280;73080;48.768;11.528;2024-01-07T09:23:28;96598.53;;;1.89;82.56
83185;BME280;73080;48.768;11.528;2024-01-07T09:25:53;96605.72;;;1.94;82.52
83185;BME280;73080;48.768;11.528;2024-01-07T09:28:18;96602.91;;;1.89;82.72
83185;BME280;73080;48.768;11.528;2024-01-07T09:30:44;96607.31;;;1.88;82.70
83185;BME280;73080;48.768;11.528;2024-01-07T09:33:09;96606.69;;;1.80;83.45
83185;BME280;73080;48.768;11.528;2024-01-07T09:35:34;96610.25;;;1.72;83.48
83185;BME280;73080;48.768;11.528;2024-01-07T09:37:59;96608.50;;;1.86;83.48
83185;BME280;73080;48.768;11.528;2024-01-07T09:40:25;96616.88;;;1.95;83.50
83185;BME280;73080;48.768;11.528;2024-01-07T09:42:50;96620.44;;;1.87;83.74
83185;BME280;73080;48.768;11.528;2024-01-07T09:45:15;96618.25;;;1.84;83.34
83185;BME280;73080;48.768;11.528;2024-01-07T09:47:44;96622.84;;;1.88;83.03
83185;BME280;73080;48.768;11.528;2024-01-07T09:50:10;96617.41;;;1.63;83.16
83185;BME280;73080;48.768;11.528;2024-01-07T09:52:38;96613.22;;;1.69;83.25
83185;BME280;73080;48.768;11.528;2024-01-07T09:55:03;96626.16;;;1.69;83.79
83185;BME280;73080;48.768;11.528;2024-01-07T09:57:30;96623.94;;;1.53;83.98
83185;BME280;73080;48.768;11.528;2024-01-07T09:59:56;96623.75;;;1.61;84.21
83185;BME280;73080;48.768;11.528;2024-01-07T10:02:21;96621.00;;;1.62;84.13
83185;BME280;73080;48.768;11.528;2024-01-07T10:04:46;96625.00;;;1.72;84.56
83185;BME280;73080;48.768;11.528;2024-01-07T10:07:11;96631.91;;;1.58;85.01
83185;BME280;73080;48.768;11.528;2024-01-07T10:09:37;96631.53;;;1.68;84.82
83185;BME280;73080;48.768;11.528;2024-01-07T10:12:05;96625.78;;;1.65;84.50
83185;BME280;73080;48.768;11.528;2024-01-07T10:14:30;96631.22;;;1.84;84.91
83185;BME280;73080;48.768;11.528;2024-01-07T10:16:55;96624.41;;;1.83;84.47
83185;BME280;73080;48.768;11.528;2024-01-07T10:19:22;96635.16;;;1.80;84.78
83185;BME280;73080;48.768;11.528;2024-01-07T10:24:25;96628.94;;;1.61;85.08
83185;BME280;73080;48.768;11.528;2024-01-07T10:26:50;96628.56;;;1.64;84.79
83185;BME280;73080;48.768;11.528;2024-01-07T10:29:15;96628.38;;;1.72;84.96
83185;BME280;73080;48.768;11.528;2024-01-07T10:31:41;96634.56;;;1.71;84.66
83185;BME280;73080;48.768;11.528;2024-01-07T10:34:09;96631.16;;;1.64;84.84
83185;BME280;73080;48.768;11.528;2024-01-07T10:36:34;96637.69;;;1.60;85.51
83185;BME280;73080;48.768;11.528;2024-01-07T10:39:00;96631.50;;;1.54;85.34
83185;BME280;73080;48.768;11.528;2024-01-07T10:41:26;96634.28;;;1.53;85.89
83185;BME280;73080;48.768;11.528;2024-01-07T10:43:51;96635.91;;;1.60;85.49
83185;BME280;73080;48.768;11.528;2024-01-07T10:46:17;96639.88;;;1.56;85.09
83185;BME280;73080;48.768;11.528;2024-01-07T10:48:54;96635.84;;;1.47;85.54
83185;BME280;73080;48.768;11.528;2024-01-07T10:51:21;96641.47;;;1.57;84.92
83185;BME280;73080;48.768;11.528;2024-01-07T10:53:51;96637.84;;;1.45;85.16
83185;BME280;73080;48.768;11.528;2024-01-07T10:56:22;96651.31;;;1.34;84.87
83185;BME280;73080;48.768;11.528;2024-01-07T10:58:48;96639.63;;;1.45;84.52
83185;BME280;73080;48.768;11.528;2024-01-07T11:01:14;96644.56;;;1.40;84.60
83185;BME280;73080;48.768;11.528;2024-01-07T11:09:37;96641.44;;;1.51;84.93
83185;BME280;73080;48.768;11.528;2024-01-07T11:12:05;96643.88;;;1.65;84.73
83185;BME280;73080;48.768;11.528;2024-01-07T11:16:59;96643.47;;;1.69;84.84
83185;BME280;73080;48.768;11.528;2024-01-07T11:19:24;96640.69;;;1.63;84.45
83185;BME280;73080;48.768;11.528;2024-01-07T11:21:49;96644.84;;;1.17;84.05
83185;BME280;73080;48.768;11.528;2024-01-07T11:24:40;96646.84;;;1.15;83.87
83185;BME280;73080;48.768;11.528;2024-01-07T11:27:08;96652.84;;;1.22;84.99
83185;BME280;73080;48.768;11.528;2024-01-07T11:29:33;96651.19;;;1.07;84.26
83185;BME280;73080;48.768;11.528;2024-01-07T11:31:58;96651.31;;;1.34;85.32
83185;BME280;73080;48.768;11.528;2024-01-07T11:34:41;96655.06;;;1.31;84.15
83185;BME280;73080;48.768;11.528;2024-01-07T11:37:09;96658.59;;;1.17;84.44
83185;BME280;73080;48.768;11.528;2024-01-07T11:39:34;96660.81;;;1.27;84.40
83185;BME280;73080;48.768;11.528;2024-01-07T11:42:01;96651.84;;;1.23;84.29
83185;BME280;73080;48.768;11.528;2024-01-07T11:44:26;96654.09;;;0.98;84.60
83185;BME280;73080;48.768;11.528;2024-01-07T11:46:51;96658.59;;;1.17;85.49
83185;BME280;73080;48.768;11.528;2024-01-07T11:49:16;96658.47;;;0.97;85.13
83185;BME280;73080;48.768;11.528;2024-01-07T11:51:42;96651.94;;;1.01;85.66
83185;BME280;73080;48.768;11.528;2024-01-07T11:54:08;96658.06;;;0.94;85.00
83185;BME280;73080;48.768;11.528;2024-01-07T11:56:33;96658.09;;;1.00;85.14
83185;BME280;73080;48.768;11.528;2024-01-07T11:58:58;96656.50;;;0.99;85.17
83185;BME280;73080;48.768;11.528;2024-01-07T12:01:24;96661.44;;;0.94;84.73
83185;BME280;73080;48.768;11.528;2024-01-07T12:03:49;96671.28;;;0.84;84.98
83185;BME280;73080;48.768;11.528;2024-01-07T12:06:15;96668.75;;;0.91;85.80
83185;BME280;73080;48.768;11.528;2024-01-07T12:08:41;96670.63;;;1.03;84.78
83185;BME280;73080;48.768;11.528;2024-01-07T12:11:06;96677.69;;;0.88;86.00
83185;BME280;73080;48.768;11.528;2024-01-07T12:13:32;96669.16;;;0.88;85.05
83185;BME280;73080;48.768;11.528;2024-01-07T12:15:58;96682.56;;;0.76;85.25
83185;BME280;73080;48.768;11.528;2024-01-07T12:18:23;96680.63;;;0.78;85.45
83185;BME280;73080;48.768;11.528;2024-01-07T12:20:58;96677.25;;;0.85;84.94
83185;BME280;73080;48.768;11.528;2024-01-07T12:23:24;96684.69;;;0.94;85.93
83185;BME280;73080;48.768;11.528;2024-01-07T12:25:50;96684.69;;;0.66;84.97
83185;BME280;73080;48.768;11.528;2024-01-07T12:28:17;96683.69;;;0.67;86.02
83185;BME280;73080;48.768;11.528;2024-01-07T12:30:42;96686.47;;;0.66;85.85
83185;BME280;73080;48.768;11.528;2024-01-07T12:33:07;96696.06;;;0.72;85.93
83185;BME280;73080;48.768;11.528;2024-01-07T12:35:34;96694.09;;;0.74;86.25
83185;BME280;73080;48.768;11.528;2024-01-07T12:37:59;96694.59;;;0.63;86.70
83185;BME280;73080;48.768;11.528;2024-01-07T12:40:24;96686.47;;;0.66;86.50
83185;BME280;73080;48.768;11.528;2024-01-07T12:42:50;96687.22;;;0.60;86.00
83185;BME280;73080;48.768;11.528;2024-01-07T12:45:15;96694.50;;;0.49;85.69
83185;BME280;73080;48.768;11.528;2024-01-07T12:47:41;96696.22;;;0.64;85.43
83185;BME280;73080;48.768;11.528;2024-01-07T12:50:07;96700.69;;;0.55;85.75
83185;BME280;73080;48.768;11.528;2024-01-07T12:52:32;96700.53;;;0.57;86.57
83185;BME280;73080;48.768;11.528;2024-01-07T12:54:57;96699.28;;;0.52;85.45
83185;BME280;73080;48.768;11.528;2024-01-07T12:57:23;96699.47;;;0.51;86.29
83185;BME280;73080;48.768;11.528;2024-01-07T12:59:48;96702.00;;;0.44;86.46
83185;BME280;73080;48.768;11.528;2024-01-07T13:02:13;96707.56;;;0.69;86.09
83185;BME280;73080;48.768;11.528;2024-01-07T13:04:38;96718.88;;;0.68;86.83
83185;BME280;73080;48.768;11.528;2024-01-07T13:07:04;96718.75;;;0.55;86.27